<?xml version="1.0" encoding="UTF-8" standalone="no" ?><gpx xmlns="http://www.topografix.com/GPX/1/1" xmlns:gpxx="http://www.garmin.com/xmlschemas/GpxExtensions/v3" xmlns:wptx1="http://www.garmin.com/xmlschemas/WaypointExtension/v1" xmlns:gpxtpx="http://www.garmin.com/xmlschemas/TrackPointExtension/v1" creator="GuideVTT.com" version="1.1" xmlns:xsi="http://www.w3.org/2001/XMLSchema-instance" xsi:schemaLocation="http://www.topografix.com/GPX/1/1 http://www.topografix.com/GPX/1/1/gpx.xsd http://www.garmin.com/xmlschemas/GpxExtensions/v3 http://www8.garmin.com/xmlschemas/GpxExtensionsv3.xsd http://www.garmin.com/xmlschemas/WaypointExtension/v1 http://www8.garmin.com/xmlschemas/WaypointExtensionv1.xsd http://www.garmin.com/xmlschemas/TrackPointExtension/v1 http://www.garmin.com/xmlschemas/TrackPointExtensionv1.xsd">
<metadata><link href="http://www.garmin.com"><text>Garmin International</text></link><time>2013-06-22T15:13:50Z</time></metadata>
<trk><name>montherod524g.gpx</name><extensions><gpxx:TrackExtension><gpxx:DisplayColor>Cyan</gpxx:DisplayColor></gpxx:TrackExtension></extensions><trkseg>
<trkpt lat="46.49842420280762" lon="6.365569095555299"><ele></ele><time>2015-11-26T0:0:16Z</time></trkpt>
<trkpt lat="46.498196780686946" lon="6.365315161809708"><ele></ele><time>2015-11-26T0:0:19Z</time></trkpt>
<trkpt lat="46.49801989743418" lon="6.364480889087695"><ele></ele><time>2015-11-26T0:0:22Z</time></trkpt>
<trkpt lat="46.49735298345707" lon="6.363665761096674"><ele></ele><time>2015-11-26T0:0:25Z</time></trkpt>
<trkpt lat="46.496999073473326" lon="6.362794690964857"><ele></ele><time>2015-11-26T0:0:28Z</time></trkpt>
<trkpt lat="46.49646614178239" lon="6.362148588656048"><ele></ele><time>2015-11-26T0:0:31Z</time></trkpt>
<trkpt lat="46.4959252374032" lon="6.361233483487773"><ele></ele><time>2015-11-26T0:0:34Z</time></trkpt>
<trkpt lat="46.49590426636246" lon="6.360948478162081"><ele></ele><time>2015-11-26T0:0:37Z</time></trkpt>
<trkpt lat="46.49636952302846" lon="6.358387552021982"><ele></ele><time>2015-11-26T0:0:40Z</time></trkpt>
<trkpt lat="46.49617564977303" lon="6.357147509845721"><ele></ele><time>2015-11-26T0:0:43Z</time></trkpt>
<trkpt lat="46.49646368594669" lon="6.35677456163922"><ele></ele><time>2015-11-26T0:0:46Z</time></trkpt>
<trkpt lat="46.49673368269883" lon="6.356791611981615"><ele></ele><time>2015-11-26T0:0:49Z</time></trkpt>
<trkpt lat="46.49694170737721" lon="6.356536649463076"><ele></ele><time>2015-11-26T0:0:52Z</time></trkpt>
<trkpt lat="46.49712671100253" lon="6.356490683676521"><ele></ele><time>2015-11-26T0:0:55Z</time></trkpt>
<trkpt lat="46.49744869176876" lon="6.356662744439875"><ele></ele><time>2015-11-26T0:0:58Z</time></trkpt>
<trkpt lat="46.49800372497982" lon="6.356304846011146"><ele></ele><time>2015-11-26T0:1:1Z</time></trkpt>
<trkpt lat="46.50104578249277" lon="6.355576408564687"><ele></ele><time>2015-11-26T0:1:4Z</time></trkpt>
<trkpt lat="46.50120876997975" lon="6.355691439419555"><ele></ele><time>2015-11-26T0:1:7Z</time></trkpt>
<trkpt lat="46.50134373521528" lon="6.356027466092841"><ele></ele><time>2015-11-26T0:1:10Z</time></trkpt>
<trkpt lat="46.50099865402229" lon="6.356846405757357"><ele></ele><time>2015-11-26T0:1:13Z</time></trkpt>
<trkpt lat="46.501007632393495" lon="6.357059408429829"><ele></ele><time>2015-11-26T0:1:16Z</time></trkpt>
<trkpt lat="46.501108616667224" lon="6.357209427914672"><ele></ele><time>2015-11-26T0:1:19Z</time></trkpt>
<trkpt lat="46.50136960750361" lon="6.35728647680603"><ele></ele><time>2015-11-26T0:1:22Z</time></trkpt>
<trkpt lat="46.50154666676465" lon="6.356692506942552"><ele></ele><time>2015-11-26T0:1:25Z</time></trkpt>
<trkpt lat="46.50190172593027" lon="6.356090570157982"><ele></ele><time>2015-11-26T0:1:28Z</time></trkpt>
<trkpt lat="46.5026437967186" lon="6.35535470474469"><ele></ele><time>2015-11-26T0:1:31Z</time></trkpt>
<trkpt lat="46.50285583051194" lon="6.355010742592076"><ele></ele><time>2015-11-26T0:1:34Z</time></trkpt>
<trkpt lat="46.50310508425646" lon="6.3524967774862935"><ele></ele><time>2015-11-26T0:1:37Z</time></trkpt>
<trkpt lat="46.50302213360122" lon="6.352014759870125"><ele></ele><time>2015-11-26T0:1:40Z</time></trkpt>
<trkpt lat="46.502839166615274" lon="6.351698724393219"><ele></ele><time>2015-11-26T0:1:43Z</time></trkpt>
<trkpt lat="46.50246520315929" lon="6.351357653251383"><ele></ele><time>2015-11-26T0:1:46Z</time></trkpt>
<trkpt lat="46.50181437048109" lon="6.3497435247819025"><ele></ele><time>2015-11-26T0:1:49Z</time></trkpt>
<trkpt lat="46.50146237242911" lon="6.349742459228687"><ele></ele><time>2015-11-26T0:1:52Z</time></trkpt>
<trkpt lat="46.50109541267813" lon="6.349365389174896"><ele></ele><time>2015-11-26T0:1:55Z</time></trkpt>
<trkpt lat="46.50049645174766" lon="6.349012275997994"><ele></ele><time>2015-11-26T0:1:58Z</time></trkpt>
<trkpt lat="46.49970961136845" lon="6.347484122418224"><ele></ele><time>2015-11-26T0:2:1Z</time></trkpt>
<trkpt lat="46.50024672902087" lon="6.346299217165695"><ele></ele><time>2015-11-26T0:2:4Z</time></trkpt>
<trkpt lat="46.50041578530576" lon="6.345737246152259"><ele></ele><time>2015-11-26T0:2:7Z</time></trkpt>
<trkpt lat="46.50044383503379" lon="6.345247249184838"><ele></ele><time>2015-11-26T0:2:10Z</time></trkpt>
<trkpt lat="46.50015889043462" lon="6.344718193686774"><ele></ele><time>2015-11-26T0:2:13Z</time></trkpt>
<trkpt lat="46.50039192023284" lon="6.3444132357775365"><ele></ele><time>2015-11-26T0:2:16Z</time></trkpt>
<trkpt lat="46.500379968573384" lon="6.343939231436455"><ele></ele><time>2015-11-26T0:2:19Z</time></trkpt>
<trkpt lat="46.500544036246225" lon="6.34326625904669"><ele></ele><time>2015-11-26T0:2:22Z</time></trkpt>
<trkpt lat="46.50116102997921" lon="6.343295374243385"><ele></ele><time>2015-11-26T0:2:25Z</time></trkpt>
<trkpt lat="46.50177505483556" lon="6.343019487533313"><ele></ele><time>2015-11-26T0:2:28Z</time></trkpt>
<trkpt lat="46.502350053338695" lon="6.343004594681952"><ele></ele><time>2015-11-26T0:2:31Z</time></trkpt>
<trkpt lat="46.50320107234836" lon="6.342774752344688"><ele></ele><time>2015-11-26T0:2:34Z</time></trkpt>
<trkpt lat="46.50328776273329" lon="6.342574776408351"><ele></ele><time>2015-11-26T0:2:37Z</time></trkpt>
<trkpt lat="46.50335611036918" lon="6.342393779605157"><ele></ele><time>2015-11-26T0:2:40Z</time></trkpt>
<trkpt lat="46.5029204332875" lon="6.341800487461323"><ele></ele><time>2015-11-26T0:2:43Z</time></trkpt>
<trkpt lat="46.502780482547834" lon="6.341282175243845"><ele></ele><time>2015-11-26T0:2:46Z</time></trkpt>
<trkpt lat="46.50298097711907" lon="6.341082684131498"><ele></ele><time>2015-11-26T0:2:49Z</time></trkpt>
<trkpt lat="46.50327624939854" lon="6.341033758877601"><ele></ele><time>2015-11-26T0:2:52Z</time></trkpt>
<trkpt lat="46.50340525699091" lon="6.340952782589252"><ele></ele><time>2015-11-26T0:2:55Z</time></trkpt>
<trkpt lat="46.50349660133159" lon="6.340909378510719"><ele></ele><time>2015-11-26T0:2:58Z</time></trkpt>
<trkpt lat="46.50365127224215" lon="6.340790827775586"><ele></ele><time>2015-11-26T0:3:1Z</time></trkpt>
<trkpt lat="46.50371800893393" lon="6.340546598769276"><ele></ele><time>2015-11-26T0:3:4Z</time></trkpt>
<trkpt lat="46.503851356464466" lon="6.340381034878756"><ele></ele><time>2015-11-26T0:3:7Z</time></trkpt>
<trkpt lat="46.504006561061445" lon="6.340149882363384"><ele></ele><time>2015-11-26T0:3:10Z</time></trkpt>
<trkpt lat="46.50436036787425" lon="6.339523830292921"><ele></ele><time>2015-11-26T0:3:13Z</time></trkpt>
<trkpt lat="46.5045443707868" lon="6.3397799900433816"><ele></ele><time>2015-11-26T0:3:16Z</time></trkpt>
<trkpt lat="46.50468639016205" lon="6.339583015700345"><ele></ele><time>2015-11-26T0:3:19Z</time></trkpt>
<trkpt lat="46.50420555249086" lon="6.338015919452513"><ele></ele><time>2015-11-26T0:3:22Z</time></trkpt>
<trkpt lat="46.50425958150995" lon="6.337728928334329"><ele></ele><time>2015-11-26T0:3:25Z</time></trkpt>
<trkpt lat="46.50447961856858" lon="6.337354967830497"><ele></ele><time>2015-11-26T0:3:28Z</time></trkpt>
<trkpt lat="46.505424695073074" lon="6.336559140868728"><ele></ele><time>2015-11-26T0:3:31Z</time></trkpt>
<trkpt lat="46.50847615523997" lon="6.329333294065653"><ele></ele><time>2015-11-26T0:3:34Z</time></trkpt>
<trkpt lat="46.50846763112878" lon="6.329374808628052"><ele></ele><time>2015-11-26T0:3:37Z</time></trkpt>
<trkpt lat="46.5088955153958" lon="6.329431197829119"><ele></ele><time>2015-11-26T0:3:40Z</time></trkpt>
<trkpt lat="46.50946086248538" lon="6.329745378858826"><ele></ele><time>2015-11-26T0:3:43Z</time></trkpt>
<trkpt lat="46.509821286250926" lon="6.329803152846759"><ele></ele><time>2015-11-26T0:3:46Z</time></trkpt>
<trkpt lat="46.51036160412944" lon="6.329857245554996"><ele></ele><time>2015-11-26T0:3:49Z</time></trkpt>
<trkpt lat="46.51080498332876" lon="6.32919664072223"><ele></ele><time>2015-11-26T0:3:52Z</time></trkpt>
<trkpt lat="46.51086385687334" lon="6.328315868796576"><ele></ele><time>2015-11-26T0:3:55Z</time></trkpt>
<trkpt lat="46.510766908195514" lon="6.327601173541477"><ele></ele><time>2015-11-26T0:3:58Z</time></trkpt>
<trkpt lat="46.510287361604114" lon="6.326861756534729"><ele></ele><time>2015-11-26T0:4:1Z</time></trkpt>
<trkpt lat="46.51001497167966" lon="6.32660673861778"><ele></ele><time>2015-11-26T0:4:4Z</time></trkpt>
<trkpt lat="46.509538925454066" lon="6.326225601828988"><ele></ele><time>2015-11-26T0:4:7Z</time></trkpt>
<trkpt lat="46.50922219822257" lon="6.326036652368724"><ele></ele><time>2015-11-26T0:4:10Z</time></trkpt>
<trkpt lat="46.508783147749874" lon="6.32484038371527"><ele></ele><time>2015-11-26T0:4:13Z</time></trkpt>
<trkpt lat="46.50838746058722" lon="6.323480366378018"><ele></ele><time>2015-11-26T0:4:16Z</time></trkpt>
<trkpt lat="46.50810898873589" lon="6.3226065763548025"><ele></ele><time>2015-11-26T0:4:19Z</time></trkpt>
<trkpt lat="46.5078764437177" lon="6.321829572612117"><ele></ele><time>2015-11-26T0:4:22Z</time></trkpt>
<trkpt lat="46.50789504218988" lon="6.321946134890567"><ele></ele><time>2015-11-26T0:4:25Z</time></trkpt>
<trkpt lat="46.507715121341654" lon="6.32129409282119"><ele></ele><time>2015-11-26T0:4:28Z</time></trkpt>
<trkpt lat="46.50790002381934" lon="6.320672919547489"><ele></ele><time>2015-11-26T0:4:31Z</time></trkpt>
<trkpt lat="46.50807909160377" lon="6.320584557423626"><ele></ele><time>2015-11-26T0:4:34Z</time></trkpt>
<trkpt lat="46.509417502994225" lon="6.318723818308298"><ele></ele><time>2015-11-26T0:4:37Z</time></trkpt>
<trkpt lat="46.5117356614738" lon="6.317077246096223"><ele></ele><time>2015-11-26T0:4:40Z</time></trkpt>
<trkpt lat="46.51281878832432" lon="6.315796444273152"><ele></ele><time>2015-11-26T0:4:43Z</time></trkpt>
<trkpt lat="46.513616860286305" lon="6.3150625910521985"><ele></ele><time>2015-11-26T0:4:46Z</time></trkpt>
<trkpt lat="46.51437697417762" lon="6.313923729420266"><ele></ele><time>2015-11-26T0:4:49Z</time></trkpt>
<trkpt lat="46.514683053053524" lon="6.313144784105209"><ele></ele><time>2015-11-26T0:4:52Z</time></trkpt>
<trkpt lat="46.51476704959817" lon="6.313174799914267"><ele></ele><time>2015-11-26T0:4:55Z</time></trkpt>
<trkpt lat="46.5148100098692" lon="6.313558809207687"><ele></ele><time>2015-11-26T0:4:58Z</time></trkpt>
<trkpt lat="46.514824566230246" lon="6.313494025509383"><ele></ele><time>2015-11-26T0:5:1Z</time></trkpt>
<trkpt lat="46.51480719194857" lon="6.314015647347469"><ele></ele><time>2015-11-26T0:5:4Z</time></trkpt>
<trkpt lat="46.51533121925554" lon="6.314702045935723"><ele></ele><time>2015-11-26T0:5:7Z</time></trkpt>
<trkpt lat="46.51530489881792" lon="6.314616905223448"><ele></ele><time>2015-11-26T0:5:10Z</time></trkpt>
<trkpt lat="46.51578179306174" lon="6.31562499768873"><ele></ele><time>2015-11-26T0:5:13Z</time></trkpt>
<trkpt lat="46.516041755032994" lon="6.31598404745732"><ele></ele><time>2015-11-26T0:5:16Z</time></trkpt>
<trkpt lat="46.51668471984137" lon="6.316300168647716"><ele></ele><time>2015-11-26T0:5:19Z</time></trkpt>
<trkpt lat="46.51718367315146" lon="6.316734263290406"><ele></ele><time>2015-11-26T0:5:22Z</time></trkpt>
<trkpt lat="46.51867361234058" lon="6.317267543317763"><ele></ele><time>2015-11-26T0:5:25Z</time></trkpt>
<trkpt lat="46.518990571723094" lon="6.317650603738941"><ele></ele><time>2015-11-26T0:5:28Z</time></trkpt>
<trkpt lat="46.52120276480554" lon="6.315690010589402"><ele></ele><time>2015-11-26T0:5:31Z</time></trkpt>
<trkpt lat="46.521359760001005" lon="6.315731040028189"><ele></ele><time>2015-11-26T0:5:34Z</time></trkpt>
<trkpt lat="46.522379511324324" lon="6.318114237753709"><ele></ele><time>2015-11-26T0:5:37Z</time></trkpt>
<trkpt lat="46.52238247238362" lon="6.3184932394866244"><ele></ele><time>2015-11-26T0:5:40Z</time></trkpt>
<trkpt lat="46.522073373178635" lon="6.31947018488392"><ele></ele><time>2015-11-26T0:5:43Z</time></trkpt>
<trkpt lat="46.521974268628675" lon="6.320492169628243"><ele></ele><time>2015-11-26T0:5:46Z</time></trkpt>
<trkpt lat="46.52176724803901" lon="6.320700131677433"><ele></ele><time>2015-11-26T0:5:49Z</time></trkpt>
<trkpt lat="46.52169322511797" lon="6.320926118591798"><ele></ele><time>2015-11-26T0:5:52Z</time></trkpt>
<trkpt lat="46.52162904378187" lon="6.322696112304771"><ele></ele><time>2015-11-26T0:5:55Z</time></trkpt>
<trkpt lat="46.52154300256868" lon="6.323101097572915"><ele></ele><time>2015-11-26T0:5:58Z</time></trkpt>
<trkpt lat="46.52113790277677" lon="6.324089025269309"><ele></ele><time>2015-11-26T0:6:1Z</time></trkpt>
<trkpt lat="46.52023380141842" lon="6.325110860103987"><ele></ele><time>2015-11-26T0:6:4Z</time></trkpt>
<trkpt lat="46.51994968919254" lon="6.326216810842443"><ele></ele><time>2015-11-26T0:6:7Z</time></trkpt>
<trkpt lat="46.51969962982286" lon="6.326805766220998"><ele></ele><time>2015-11-26T0:6:10Z</time></trkpt>
<trkpt lat="46.520131621635024" lon="6.326869846944395"><ele></ele><time>2015-11-26T0:6:13Z</time></trkpt>
<trkpt lat="46.52067257763624" lon="6.327279949122026"><ele></ele><time>2015-11-26T0:6:16Z</time></trkpt>
<trkpt lat="46.521838595273586" lon="6.32706616564078"><ele></ele><time>2015-11-26T0:6:19Z</time></trkpt>
<trkpt lat="46.52219159042159" lon="6.3271012315113815"><ele></ele><time>2015-11-26T0:6:22Z</time></trkpt>
<trkpt lat="46.5222031195503" lon="6.327483080529988"><ele></ele><time>2015-11-26T0:6:25Z</time></trkpt>
<trkpt lat="46.5213640773946" lon="6.329096723103335"><ele></ele><time>2015-11-26T0:6:28Z</time></trkpt>
<trkpt lat="46.52052155034146" lon="6.330351980468113"><ele></ele><time>2015-11-26T0:6:31Z</time></trkpt>
<trkpt lat="46.52025737417347" lon="6.330943824099076"><ele></ele><time>2015-11-26T0:6:34Z</time></trkpt>
<trkpt lat="46.52012937308168" lon="6.33166322791705"><ele></ele><time>2015-11-26T0:6:37Z</time></trkpt>
<trkpt lat="46.51947142152449" lon="6.333403402131526"><ele></ele><time>2015-11-26T0:6:40Z</time></trkpt>
<trkpt lat="46.519297803992394" lon="6.334058549437291"><ele></ele><time>2015-11-26T0:6:43Z</time></trkpt>
<trkpt lat="46.519217578090554" lon="6.3350702002536625"><ele></ele><time>2015-11-26T0:6:46Z</time></trkpt>
<trkpt lat="46.51899741110438" lon="6.335563372707096"><ele></ele><time>2015-11-26T0:6:49Z</time></trkpt>
<trkpt lat="46.51858519029263" lon="6.337135598174386"><ele></ele><time>2015-11-26T0:6:52Z</time></trkpt>
<trkpt lat="46.51823009381625" lon="6.337631478124041"><ele></ele><time>2015-11-26T0:6:55Z</time></trkpt>
<trkpt lat="46.518101425533445" lon="6.338285690294609"><ele></ele><time>2015-11-26T0:6:58Z</time></trkpt>
<trkpt lat="46.518280998498" lon="6.340595316507031"><ele></ele><time>2015-11-26T0:7:1Z</time></trkpt>
<trkpt lat="46.518150131267255" lon="6.341021500237149"><ele></ele><time>2015-11-26T0:7:4Z</time></trkpt>
<trkpt lat="46.5182013377625" lon="6.3416720880558834"><ele></ele><time>2015-11-26T0:7:7Z</time></trkpt>
<trkpt lat="46.518475228531976" lon="6.342090137046199"><ele></ele><time>2015-11-26T0:7:10Z</time></trkpt>
<trkpt lat="46.518616064810026" lon="6.342706348971688"><ele></ele><time>2015-11-26T0:7:13Z</time></trkpt>
<trkpt lat="46.51840674825883" lon="6.34433960121672"><ele></ele><time>2015-11-26T0:7:16Z</time></trkpt>
<trkpt lat="46.5194554274599" lon="6.345817330721878"><ele></ele><time>2015-11-26T0:7:19Z</time></trkpt>
<trkpt lat="46.519579958869194" lon="6.347085522939404"><ele></ele><time>2015-11-26T0:7:22Z</time></trkpt>
<trkpt lat="46.51949497061532" lon="6.347608528537474"><ele></ele><time>2015-11-26T0:7:25Z</time></trkpt>
<trkpt lat="46.51963051113503" lon="6.34767098269321"><ele></ele><time>2015-11-26T0:7:28Z</time></trkpt>
<trkpt lat="46.52009033276918" lon="6.346358512629955"><ele></ele><time>2015-11-26T0:7:31Z</time></trkpt>
<trkpt lat="46.52002393208854" lon="6.344111686669671"><ele></ele><time>2015-11-26T0:7:34Z</time></trkpt>
<trkpt lat="46.52010859330062" lon="6.343556094757864"><ele></ele><time>2015-11-26T0:7:37Z</time></trkpt>
<trkpt lat="46.520082373643" lon="6.343165636845034"><ele></ele><time>2015-11-26T0:7:40Z</time></trkpt>
<trkpt lat="46.51968608820893" lon="6.341707411104306"><ele></ele><time>2015-11-26T0:7:43Z</time></trkpt>
<trkpt lat="46.51981633465485" lon="6.341216065780653"><ele></ele><time>2015-11-26T0:7:46Z</time></trkpt>
<trkpt lat="46.519962203352584" lon="6.340007601122315"><ele></ele><time>2015-11-26T0:7:49Z</time></trkpt>
<trkpt lat="46.519865701597624" lon="6.339325323983526"><ele></ele><time>2015-11-26T0:7:52Z</time></trkpt>
<trkpt lat="46.52008494771514" lon="6.338734431675271"><ele></ele><time>2015-11-26T0:7:55Z</time></trkpt>
<trkpt lat="46.520034974701204" lon="6.338214126852176"><ele></ele><time>2015-11-26T0:7:58Z</time></trkpt>
<trkpt lat="46.520121170581035" lon="6.337821404403118"><ele></ele><time>2015-11-26T0:8:1Z</time></trkpt>
<trkpt lat="46.52027920321485" lon="6.337883381287274"><ele></ele><time>2015-11-26T0:8:4Z</time></trkpt>
<trkpt lat="46.52033198975237" lon="6.338696871002213"><ele></ele><time>2015-11-26T0:8:7Z</time></trkpt>
<trkpt lat="46.52051531978353" lon="6.339051581392585"><ele></ele><time>2015-11-26T0:8:10Z</time></trkpt>
<trkpt lat="46.520910079621416" lon="6.340346928754381"><ele></ele><time>2015-11-26T0:8:13Z</time></trkpt>
<trkpt lat="46.52089707131647" lon="6.341337698505366"><ele></ele><time>2015-11-26T0:8:16Z</time></trkpt>
<trkpt lat="46.52083116298873" lon="6.341131026952821"><ele></ele><time>2015-11-26T0:8:19Z</time></trkpt>
<trkpt lat="46.52096097983878" lon="6.3429260576000495"><ele></ele><time>2015-11-26T0:8:22Z</time></trkpt>
<trkpt lat="46.521410683282866" lon="6.34582715175585"><ele></ele><time>2015-11-26T0:8:25Z</time></trkpt>
<trkpt lat="46.52135765898029" lon="6.346068142805053"><ele></ele><time>2015-11-26T0:8:28Z</time></trkpt>
<trkpt lat="46.521150624452616" lon="6.3464151056655425"><ele></ele><time>2015-11-26T0:8:31Z</time></trkpt>
<trkpt lat="46.52173335729969" lon="6.34902622352331"><ele></ele><time>2015-11-26T0:8:34Z</time></trkpt>
<trkpt lat="46.52137625747712" lon="6.350022161038429"><ele></ele><time>2015-11-26T0:8:37Z</time></trkpt>
<trkpt lat="46.52136518549853" lon="6.350732161671947"><ele></ele><time>2015-11-26T0:8:40Z</time></trkpt>
<trkpt lat="46.52153307520767" lon="6.351814196909533"><ele></ele><time>2015-11-26T0:8:43Z</time></trkpt>
<trkpt lat="46.52143399000507" lon="6.352658181763218"><ele></ele><time>2015-11-26T0:8:46Z</time></trkpt>
<trkpt lat="46.52235179978291" lon="6.354505358901065"><ele></ele><time>2015-11-26T0:8:49Z</time></trkpt>
<trkpt lat="46.52261572307131" lon="6.355254410655226"><ele></ele><time>2015-11-26T0:8:52Z</time></trkpt>
<trkpt lat="46.522994684164864" lon="6.355626482261124"><ele></ele><time>2015-11-26T0:8:55Z</time></trkpt>
<trkpt lat="46.52269860499851" lon="6.356418430474445"><ele></ele><time>2015-11-26T0:8:58Z</time></trkpt>
<trkpt lat="46.52277258573335" lon="6.356606444896447"><ele></ele><time>2015-11-26T0:9:1Z</time></trkpt>
<trkpt lat="46.522700587590165" lon="6.356590431504082"><ele></ele><time>2015-11-26T0:9:4Z</time></trkpt>
<trkpt lat="46.52432344378641" lon="6.357960737149489"><ele></ele><time>2015-11-26T0:9:7Z</time></trkpt>
<trkpt lat="46.524667436033084" lon="6.358026801052531"><ele></ele><time>2015-11-26T0:9:10Z</time></trkpt>
<trkpt lat="46.52496544177757" lon="6.357960855940736"><ele></ele><time>2015-11-26T0:9:13Z</time></trkpt>
<trkpt lat="46.52533146582221" lon="6.357711922720885"><ele></ele><time>2015-11-26T0:9:16Z</time></trkpt>
<trkpt lat="46.525541498140946" lon="6.357385960353671"><ele></ele><time>2015-11-26T0:9:19Z</time></trkpt>
<trkpt lat="46.52571254545158" lon="6.356912990228323"><ele></ele><time>2015-11-26T0:9:22Z</time></trkpt>
<trkpt lat="46.526444888433005" lon="6.353502113166886"><ele></ele><time>2015-11-26T0:9:25Z</time></trkpt>
<trkpt lat="46.52693007348119" lon="6.351661196336422"><ele></ele><time>2015-11-26T0:9:28Z</time></trkpt>
<trkpt lat="46.52785753182483" lon="6.349343720746197"><ele></ele><time>2015-11-26T0:9:31Z</time></trkpt>
<trkpt lat="46.52882675141255" lon="6.347206145204488"><ele></ele><time>2015-11-26T0:9:34Z</time></trkpt>
<trkpt lat="46.53002881350894" lon="6.348257431727123"><ele></ele><time>2015-11-26T0:9:37Z</time></trkpt>
<trkpt lat="46.53021150473729" lon="6.3485470626084215"><ele></ele><time>2015-11-26T0:9:40Z</time></trkpt>
<trkpt lat="46.53049531868785" lon="6.350007845747566"><ele></ele><time>2015-11-26T0:9:43Z</time></trkpt>
<trkpt lat="46.53069987188175" lon="6.350231870900704"><ele></ele><time>2015-11-26T0:9:46Z</time></trkpt>
<trkpt lat="46.531114247123234" lon="6.35123382686631"><ele></ele><time>2015-11-26T0:9:49Z</time></trkpt>
<trkpt lat="46.531211320412645" lon="6.351981425311764"><ele></ele><time>2015-11-26T0:9:52Z</time></trkpt>
<trkpt lat="46.53078195003853" lon="6.352773913279108"><ele></ele><time>2015-11-26T0:9:55Z</time></trkpt>
<trkpt lat="46.53073987613524" lon="6.353504908038412"><ele></ele><time>2015-11-26T0:9:58Z</time></trkpt>
<trkpt lat="46.530849821287205" lon="6.35404393025722"><ele></ele><time>2015-11-26T0:10:1Z</time></trkpt>
<trkpt lat="46.530995787812365" lon="6.3543709583975145"><ele></ele><time>2015-11-26T0:10:4Z</time></trkpt>
<trkpt lat="46.531068787825205" lon="6.354368971891988"><ele></ele><time>2015-11-26T0:10:7Z</time></trkpt>
<trkpt lat="46.5310377692859" lon="6.354552966797812"><ele></ele><time>2015-11-26T0:10:10Z</time></trkpt>
<trkpt lat="46.530852752363046" lon="6.354724933182022"><ele></ele><time>2015-11-26T0:10:13Z</time></trkpt>
<trkpt lat="46.53063569445244" lon="6.355302895071499"><ele></ele><time>2015-11-26T0:10:16Z</time></trkpt>
<trkpt lat="46.530623329516665" lon="6.356608527031948"><ele></ele><time>2015-11-26T0:10:19Z</time></trkpt>
<trkpt lat="46.530536147378" lon="6.356903549496017"><ele></ele><time>2015-11-26T0:10:22Z</time></trkpt>
<trkpt lat="46.53029155651904" lon="6.357201690209795"><ele></ele><time>2015-11-26T0:10:25Z</time></trkpt>
<trkpt lat="46.53002749573127" lon="6.357283789655231"><ele></ele><time>2015-11-26T0:10:28Z</time></trkpt>
<trkpt lat="46.529698465074226" lon="6.35759572994735"><ele></ele><time>2015-11-26T0:10:31Z</time></trkpt>
<trkpt lat="46.52995635130624" lon="6.35871478165416"><ele></ele><time>2015-11-26T0:10:34Z</time></trkpt>
<trkpt lat="46.52969830603019" lon="6.359169735611375"><ele></ele><time>2015-11-26T0:10:37Z</time></trkpt>
<trkpt lat="46.529359278256315" lon="6.359453673988857"><ele></ele><time>2015-11-26T0:10:40Z</time></trkpt>
<trkpt lat="46.529175223714" lon="6.359998641968651"><ele></ele><time>2015-11-26T0:10:43Z</time></trkpt>
<trkpt lat="46.52909916747757" lon="6.360557629968164"><ele></ele><time>2015-11-26T0:10:46Z</time></trkpt>
<trkpt lat="46.528967157135696" lon="6.36066360596597"><ele></ele><time>2015-11-26T0:10:49Z</time></trkpt>
<trkpt lat="46.52844915805695" lon="6.360668510264493"><ele></ele><time>2015-11-26T0:10:52Z</time></trkpt>
<trkpt lat="46.528114194129316" lon="6.360320447068531"><ele></ele><time>2015-11-26T0:10:55Z</time></trkpt>
<trkpt lat="46.527723215127594" lon="6.3601233740701035"><ele></ele><time>2015-11-26T0:10:58Z</time></trkpt>
<trkpt lat="46.52678923236492" lon="6.359979200873512"><ele></ele><time>2015-11-26T0:11:1Z</time></trkpt>
<trkpt lat="46.52640122966863" lon="6.360017129280188"><ele></ele><time>2015-11-26T0:11:4Z</time></trkpt>
<trkpt lat="46.52621318437516" lon="6.360471096230745"><ele></ele><time>2015-11-26T0:11:7Z</time></trkpt>
<trkpt lat="46.52580515227148" lon="6.3608010220477205"><ele></ele><time>2015-11-26T0:11:10Z</time></trkpt>
<trkpt lat="46.52517711621121" lon="6.361176907372241"><ele></ele><time>2015-11-26T0:11:13Z</time></trkpt>
<trkpt lat="46.52475111550267" lon="6.361196828683042"><ele></ele><time>2015-11-26T0:11:16Z</time></trkpt>
<trkpt lat="46.52424416464481" lon="6.360725733114978"><ele></ele><time>2015-11-26T0:11:19Z</time></trkpt>
<trkpt lat="46.52415419108588" lon="6.360466715471741"><ele></ele><time>2015-11-26T0:11:22Z</time></trkpt>
<trkpt lat="46.523787227097614" lon="6.360121646258612"><ele></ele><time>2015-11-26T0:11:25Z</time></trkpt>
<trkpt lat="46.52328823708433" lon="6.36003855362758"><ele></ele><time>2015-11-26T0:11:28Z</time></trkpt>
<trkpt lat="46.52306326286966" lon="6.359790511038231"><ele></ele><time>2015-11-26T0:11:31Z</time></trkpt>
<trkpt lat="46.5226302845968" lon="6.359589430138858"><ele></ele><time>2015-11-26T0:11:34Z</time></trkpt>
<trkpt lat="46.52153941429132" lon="6.3583422233425155"><ele></ele><time>2015-11-26T0:11:37Z</time></trkpt>
<trkpt lat="46.52121040358497" lon="6.358459162892905"><ele></ele><time>2015-11-26T0:11:40Z</time></trkpt>
<trkpt lat="46.52055644750601" lon="6.358047040179104"><ele></ele><time>2015-11-26T0:11:43Z</time></trkpt>
<trkpt lat="46.520091442159796" lon="6.358115954342415"><ele></ele><time>2015-11-26T0:11:46Z</time></trkpt>
<trkpt lat="46.51959449884449" lon="6.357572860138023"><ele></ele><time>2015-11-26T0:11:49Z</time></trkpt>
<trkpt lat="46.519399549417656" lon="6.357079822057137"><ele></ele><time>2015-11-26T0:11:52Z</time></trkpt>
<trkpt lat="46.51930355198933" lon="6.357057804185087"><ele></ele><time>2015-11-26T0:11:55Z</time></trkpt>
<trkpt lat="46.51924954115623" lon="6.357166794614748"><ele></ele><time>2015-11-26T0:11:58Z</time></trkpt>
<trkpt lat="46.51939050382455" lon="6.357530822183488"><ele></ele><time>2015-11-26T0:12:1Z</time></trkpt>
<trkpt lat="46.51924843879482" lon="6.358178798467135"><ele></ele><time>2015-11-26T0:12:4Z</time></trkpt>
<trkpt lat="46.519306843053165" lon="6.358624830502508"><ele></ele><time>2015-11-26T0:12:7Z</time></trkpt>
<trkpt lat="46.51900153083173" lon="6.35964089050428"><ele></ele><time>2015-11-26T0:12:10Z</time></trkpt>
<trkpt lat="46.518758770774895" lon="6.360134405772585"><ele></ele><time>2015-11-26T0:12:13Z</time></trkpt>
<trkpt lat="46.51849199089904" lon="6.360465486143412"><ele></ele><time>2015-11-26T0:12:16Z</time></trkpt>
<trkpt lat="46.51827324426073" lon="6.36112142306531"><ele></ele><time>2015-11-26T0:12:19Z</time></trkpt>
<trkpt lat="46.5180231344573" lon="6.360833133848949"><ele></ele><time>2015-11-26T0:12:22Z</time></trkpt>
<trkpt lat="46.51786542038355" lon="6.36080366716732"><ele></ele><time>2015-11-26T0:12:25Z</time></trkpt>
<trkpt lat="46.517170164255184" lon="6.361012875418378"><ele></ele><time>2015-11-26T0:12:28Z</time></trkpt>
<trkpt lat="46.51697053646825" lon="6.361310036482106"><ele></ele><time>2015-11-26T0:12:31Z</time></trkpt>
<trkpt lat="46.51672899235739" lon="6.3619338212369945"><ele></ele><time>2015-11-26T0:12:34Z</time></trkpt>
<trkpt lat="46.51654695688145" lon="6.361709353067798"><ele></ele><time>2015-11-26T0:12:37Z</time></trkpt>
<trkpt lat="46.51643146379796" lon="6.361385834281645"><ele></ele><time>2015-11-26T0:12:40Z</time></trkpt>
<trkpt lat="46.516296542662694" lon="6.361388496695622"><ele></ele><time>2015-11-26T0:12:43Z</time></trkpt>
<trkpt lat="46.51629990727968" lon="6.361746806286967"><ele></ele><time>2015-11-26T0:12:46Z</time></trkpt>
<trkpt lat="46.51588213296654" lon="6.362765008229047"><ele></ele><time>2015-11-26T0:12:49Z</time></trkpt>
<trkpt lat="46.515345197694984" lon="6.363068801272005"><ele></ele><time>2015-11-26T0:12:52Z</time></trkpt>
<trkpt lat="46.51512002363012" lon="6.363040658643856"><ele></ele><time>2015-11-26T0:12:55Z</time></trkpt>
<trkpt lat="46.51485201383925" lon="6.363241411524043"><ele></ele><time>2015-11-26T0:12:58Z</time></trkpt>
<trkpt lat="46.51474232771256" lon="6.363536780366741"><ele></ele><time>2015-11-26T0:13:1Z</time></trkpt>
<trkpt lat="46.51425219531845" lon="6.364035108278959"><ele></ele><time>2015-11-26T0:13:4Z</time></trkpt>
<trkpt lat="46.5139517879423" lon="6.364820845429724"><ele></ele><time>2015-11-26T0:13:7Z</time></trkpt>
<trkpt lat="46.513183719929536" lon="6.365525706309494"><ele></ele><time>2015-11-26T0:13:10Z</time></trkpt>
<trkpt lat="46.51254770448863" lon="6.365704589335827"><ele></ele><time>2015-11-26T0:13:13Z</time></trkpt>
<trkpt lat="46.51220371378666" lon="6.365626525290839"><ele></ele><time>2015-11-26T0:13:16Z</time></trkpt>
<trkpt lat="46.51191170461796" lon="6.3657294716728785"><ele></ele><time>2015-11-26T0:13:19Z</time></trkpt>
<trkpt lat="46.511502674566515" lon="6.366044397331512"><ele></ele><time>2015-11-26T0:13:22Z</time></trkpt>
<trkpt lat="46.51128664360965" lon="6.3663603587427"><ele></ele><time>2015-11-26T0:13:25Z</time></trkpt>
<trkpt lat="46.5109986925476" lon="6.365887303286099"><ele></ele><time>2015-11-26T0:13:28Z</time></trkpt>
<trkpt lat="46.511326745729335" lon="6.365346361622569"><ele></ele><time>2015-11-26T0:13:31Z</time></trkpt>
<trkpt lat="46.51194288845582" lon="6.3639064693568566"><ele></ele><time>2015-11-26T0:13:34Z</time></trkpt>
<trkpt lat="46.51195790656469" lon="6.363726471344003"><ele></ele><time>2015-11-26T0:13:37Z</time></trkpt>
<trkpt lat="46.51171093305046" lon="6.363474424471791"><ele></ele><time>2015-11-26T0:13:40Z</time></trkpt>
<trkpt lat="46.51118787651511" lon="6.364056330138602"><ele></ele><time>2015-11-26T0:13:43Z</time></trkpt>
<trkpt lat="46.51103086678935" lon="6.364159301506026"><ele></ele><time>2015-11-26T0:13:46Z</time></trkpt>
<trkpt lat="46.510858870758554" lon="6.364127269493943"><ele></ele><time>2015-11-26T0:13:49Z</time></trkpt>
<trkpt lat="46.5100517523332" lon="6.365335125377474"><ele></ele><time>2015-11-26T0:13:52Z</time></trkpt>
<trkpt lat="46.50943862891708" lon="6.36658501747465"><ele></ele><time>2015-11-26T0:13:55Z</time></trkpt>
<trkpt lat="46.50909160473399" lon="6.366839954356759"><ele></ele><time>2015-11-26T0:13:58Z</time></trkpt>
<trkpt lat="46.50871859893309" lon="6.366913885594722"><ele></ele><time>2015-11-26T0:14:1Z</time></trkpt>
<trkpt lat="46.507316757509756" lon="6.367703229256904"><ele></ele><time>2015-11-26T0:14:4Z</time></trkpt>
<trkpt lat="46.50714021920484" lon="6.368065017595138"><ele></ele><time>2015-11-26T0:14:7Z</time></trkpt>
<trkpt lat="46.50701200811221" lon="6.368784167457629"><ele></ele><time>2015-11-26T0:14:10Z</time></trkpt>
<trkpt lat="46.507264289722414" lon="6.370046630849623"><ele></ele><time>2015-11-26T0:14:13Z</time></trkpt>
<trkpt lat="46.50714424152039" lon="6.3705306109126525"><ele></ele><time>2015-11-26T0:14:16Z</time></trkpt>
<trkpt lat="46.50624819853077" lon="6.370998447210429"><ele></ele><time>2015-11-26T0:14:19Z</time></trkpt>
<trkpt lat="46.50534118225215" lon="6.371202280206389"><ele></ele><time>2015-11-26T0:14:22Z</time></trkpt>
<trkpt lat="46.5052921888291" lon="6.371139270827061"><ele></ele><time>2015-11-26T0:14:25Z</time></trkpt>
<trkpt lat="46.505448248117496" lon="6.370543296858223"><ele></ele><time>2015-11-26T0:14:28Z</time></trkpt>
<trkpt lat="46.50580630223639" lon="6.369989360525657"><ele></ele><time>2015-11-26T0:14:31Z</time></trkpt>
<trkpt lat="46.5062489780457" lon="6.368962032227177"><ele></ele><time>2015-11-26T0:14:34Z</time></trkpt>
<trkpt lat="46.506314609413444" lon="6.368765300960643"><ele></ele><time>2015-11-26T0:14:37Z</time></trkpt>
<trkpt lat="46.50626811093042" lon="6.368603347082555"><ele></ele><time>2015-11-26T0:14:40Z</time></trkpt>
<trkpt lat="46.50499832692886" lon="6.3697822098358765"><ele></ele><time>2015-11-26T0:14:43Z</time></trkpt>
<trkpt lat="46.50486933248439" lon="6.369733185697561"><ele></ele><time>2015-11-26T0:14:46Z</time></trkpt>
<trkpt lat="46.504792403301195" lon="6.369034168073877"><ele></ele><time>2015-11-26T0:14:49Z</time></trkpt>
<trkpt lat="46.504669399559035" lon="6.369077145484434"><ele></ele><time>2015-11-26T0:14:52Z</time></trkpt>
<trkpt lat="46.502670202592654" lon="6.3711287849857134"><ele></ele><time>2015-11-26T0:14:55Z</time></trkpt>
<trkpt lat="46.50138212558818" lon="6.371957550384148"><ele></ele><time>2015-11-26T0:14:58Z</time></trkpt>
<trkpt lat="46.501059124216646" lon="6.371987490666203"><ele></ele><time>2015-11-26T0:15:1Z</time></trkpt>
<trkpt lat="46.5007521642665" lon="6.37160543184414"><ele></ele><time>2015-11-26T0:15:4Z</time></trkpt>
<trkpt lat="46.50053317879381" lon="6.371472390576681"><ele></ele><time>2015-11-26T0:15:7Z</time></trkpt>
<trkpt lat="46.4990481878853" lon="6.371459115151614"><ele></ele><time>2015-11-26T0:15:10Z</time></trkpt>
<trkpt lat="46.49887020303677" lon="6.3713180814227375"><ele></ele><time>2015-11-26T0:15:13Z</time></trkpt>
<trkpt lat="46.49892966114489" lon="6.371305342295512"><ele></ele><time>2015-11-26T0:15:16Z</time></trkpt>
<trkpt lat="46.49937665153337" lon="6.368593330574745"><ele></ele><time>2015-11-26T0:15:19Z</time></trkpt>
<trkpt lat="46.49930096833505" lon="6.367715442355225"><ele></ele><time>2015-11-26T0:15:22Z</time></trkpt>
<trkpt lat="46.49904080862867" lon="6.366352644071551"><ele></ele><time>2015-11-26T0:15:25Z</time></trkpt>
<trkpt lat="46.49853776082577" lon="6.36569925571121"><ele></ele><time>2015-11-26T0:15:28Z</time></trkpt>
<trkpt lat="46.4990639055894" lon="6.366417328364016"><ele></ele><time>2015-11-26T0:15:31Z</time></trkpt>
</trkseg></trk></gpx>